createdAt,value
2022-11-02T00:01:42.567Z,67.62
2022-11-02T00:04:14.613Z,67.69
2022-11-02T00:06:46.264Z,67.79
2022-11-02T00:09:17.901Z,67.75
2022-11-02T00:11:49.449Z,67.91
2022-11-02T00:14:21.137Z,67.85
2022-11-02T00:16:53.070Z,67.69
2022-11-02T00:19:24.665Z,67.77
2022-11-02T00:21:58.829Z,67.77
2022-11-02T00:24:32.953Z,67.87
2022-11-02T00:27:04.797Z,67.93
2022-11-02T00:29:37.689Z,67.99
2022-11-02T00:32:09.737Z,68.04
2022-11-02T00:34:41.314Z,68.15
2022-11-02T00:37:12.899Z,68.09
2022-11-02T00:39:44.465Z,68.21
2022-11-02T00:42:17.366Z,68.20
2022-11-02T00:44:48.912Z,68.15
2022-11-02T00:47:20.580Z,68.12
2022-11-02T00:49:52.149Z,68.17
2022-11-02T00:52:23.760Z,68.14
2022-11-02T00:54:55.357Z,68.09
2022-11-02T00:57:27.102Z,68.04
2022-11-02T00:59:58.713Z,68.08
2022-11-02T01:02:31.031Z,68.15
2022-11-02T01:05:03.699Z,68.15
2022-11-02T01:07:35.381Z,68.30
2022-11-02T01:10:09.162Z,68.32
2022-11-02T01:12:39.341Z,68.54
2022-11-02T01:15:12.245Z,68.64
2022-11-02T01:17:44.043Z,68.62
2022-11-02T01:20:15.920Z,68.61
2022-11-02T01:22:47.504Z,68.57
2022-11-02T01:25:19.311Z,68.53
2022-11-02T01:27:50.982Z,68.44
2022-11-02T01:30:22.766Z,68.47
2022-11-02T01:32:54.383Z,68.57
2022-11-02T01:35:26.105Z,68.55
2022-11-02T01:37:57.734Z,68.60
2022-11-02T01:40:37.701Z,68.55
2022-11-02T01:43:26.482Z,68.57
2022-11-02T01:46:02.913Z,68.66
2022-11-02T01:48:38.169Z,68.80
2022-11-02T01:51:20.024Z,68.78
2022-11-02T01:53:55.922Z,68.86
2022-11-02T01:56:33.728Z,68.81
2022-11-02T01:59:11.938Z,68.80
2022-11-02T02:01:43.907Z,68.78
2022-11-02T02:04:17.314Z,68.83
2022-11-02T02:06:50.768Z,68.83
2022-11-02T02:09:24.440Z,68.82
2022-11-02T02:11:56.052Z,68.81
2022-11-02T02:14:27.712Z,68.86
2022-11-02T02:17:14.396Z,68.85
2022-11-02T02:19:53.712Z,68.89
2022-11-02T02:22:45.736Z,69.05
2022-11-02T02:25:34.535Z,69.05
2022-11-02T02:28:20.645Z,69.06
2022-11-02T02:30:56.778Z,69.01
2022-11-02T02:33:35.330Z,69.02
2022-11-02T02:36:14.071Z,69.00
2022-11-02T02:38:51.017Z,68.92
2022-11-02T02:41:31.470Z,68.88
2022-11-02T02:44:04.894Z,68.85
2022-11-02T02:46:48.303Z,68.93
2022-11-02T02:49:30.642Z,68.98
2022-11-02T02:52:04.010Z,69.06
2022-11-02T02:54:41.533Z,68.99
2022-11-02T02:57:18.779Z,68.98
2022-11-02T02:59:50.866Z,69.07
2022-11-02T03:02:26.850Z,69.01
2022-11-02T03:04:58.604Z,69.09
2022-11-02T03:07:34.478Z,69.16
2022-11-02T03:10:14.246Z,69.10
2022-11-02T03:12:57.126Z,69.09
2022-11-02T03:15:37.865Z,69.05
2022-11-02T03:18:19.353Z,69.13
2022-11-02T03:20:59.434Z,69.07
2022-11-02T03:23:37.058Z,68.99
2022-11-02T03:26:13.475Z,69.07
2022-11-02T03:28:57.463Z,69.16
2022-11-02T03:31:49.048Z,69.29
2022-11-02T03:34:26.682Z,69.38
2022-11-02T03:37:02.346Z,69.36
2022-11-02T03:39:39.685Z,69.33
2022-11-02T03:42:16.740Z,69.46
2022-11-02T03:44:52.408Z,69.56
2022-11-02T03:47:26.314Z,69.51
2022-11-02T03:50:00.806Z,69.53
2022-11-02T03:52:37.448Z,69.51
2022-11-02T03:55:13.561Z,69.43
2022-11-02T03:57:51.641Z,69.47
2022-11-02T04:00:25.079Z,69.41
2022-11-02T04:03:04.800Z,69.46
2022-11-02T04:05:39.665Z,69.36
2022-11-02T04:08:22.732Z,69.42
2022-11-02T04:11:13.151Z,69.42
2022-11-02T04:14:02.557Z,69.54
2022-11-02T04:16:34.151Z,69.59
2022-11-02T04:19:24.134Z,69.61
2022-11-02T04:22:14.010Z,69.72
2022-11-02T04:25:03.327Z,69.70
2022-11-02T04:27:36.865Z,69.54
2022-11-02T04:30:12.640Z,69.57
2022-11-02T04:33:02.506Z,69.58
2022-11-02T04:35:37.679Z,69.50
2022-11-02T04:38:27.066Z,69.60
2022-11-02T04:41:14.079Z,69.57
2022-11-02T04:43:45.702Z,69.69
2022-11-02T04:46:17.333Z,69.62
2022-11-02T04:48:49.589Z,69.86
2022-11-02T04:51:22.453Z,69.88
2022-11-02T04:53:55.693Z,69.87
2022-11-02T04:56:28.571Z,69.84
2022-11-02T04:59:01.566Z,69.86
2022-11-02T05:01:33.406Z,69.80
2022-11-02T05:04:05.666Z,69.79
2022-11-02T05:06:37.366Z,69.70
2022-11-02T05:09:09.945Z,69.81
2022-11-02T05:11:41.526Z,69.77
2022-11-02T05:14:13.161Z,69.74
2022-11-02T05:16:44.794Z,69.95
2022-11-02T05:19:16.446Z,69.99
2022-11-02T05:21:48.229Z,69.96
2022-11-02T05:24:19.884Z,69.93
2022-11-02T05:26:54.010Z,70.00
2022-11-02T05:29:26.153Z,70.10
2022-11-02T05:31:57.789Z,70.15
2022-11-02T05:34:29.566Z,70.13
2022-11-02T05:37:01.224Z,70.21
2022-11-02T05:39:32.769Z,70.12
2022-11-02T05:42:04.355Z,70.13
2022-11-02T05:44:36.061Z,70.14
2022-11-02T05:47:07.843Z,70.17
2022-11-02T05:49:39.389Z,70.28
2022-11-02T05:52:11.147Z,70.17
2022-11-02T05:54:42.808Z,70.24
2022-11-02T05:57:14.432Z,70.32
2022-11-02T05:59:49.187Z,70.34
2022-11-02T06:02:23.343Z,70.45
2022-11-02T06:04:57.333Z,70.49
2022-11-02T06:07:30.090Z,70.59
2022-11-02T06:10:02.616Z,70.60
2022-11-02T06:12:34.352Z,70.50
2022-11-02T06:15:06.935Z,70.48
2022-11-02T06:17:41.888Z,70.35
2022-11-02T06:20:15.300Z,70.36
2022-11-02T06:22:47.515Z,70.42
2022-11-02T06:25:22.268Z,70.48
2022-11-02T06:27:56.609Z,70.52
2022-11-02T06:30:28.449Z,70.58
2022-11-02T06:33:02.947Z,70.61
2022-11-02T06:35:38.622Z,70.69
2022-11-02T06:38:10.268Z,70.72
2022-11-02T06:40:42.692Z,70.75
2022-11-02T06:43:17.030Z,70.78
2022-11-02T06:45:49.386Z,70.73
2022-11-02T06:48:20.897Z,70.69
2022-11-02T06:50:52.462Z,70.83
2022-11-02T06:53:25.261Z,70.98
2022-11-02T06:55:58.264Z,70.93
2022-11-02T06:58:30.172Z,71.05
2022-11-02T07:01:03.765Z,71.23
2022-11-02T07:03:35.901Z,71.30
2022-11-02T07:06:13.687Z,71.46
2022-11-02T07:08:45.852Z,71.59
2022-11-02T07:11:18.243Z,71.66
2022-11-02T07:13:49.989Z,71.77
2022-11-02T07:16:21.619Z,71.74
2022-11-02T07:18:53.377Z,71.84
2022-11-02T07:21:25.186Z,71.84
2022-11-02T07:23:56.778Z,71.86
2022-11-02T07:26:28.814Z,71.81
2022-11-02T07:29:00.486Z,71.72
2022-11-02T07:31:32.553Z,71.59
2022-11-02T07:34:04.649Z,71.65
2022-11-02T07:36:36.202Z,71.59
2022-11-02T07:39:08.901Z,71.65
2022-11-02T07:41:40.513Z,71.72
2022-11-02T07:44:12.065Z,71.75
2022-11-02T07:46:44.566Z,71.98
2022-11-02T07:49:21.072Z,71.81
2022-11-02T07:51:53.262Z,71.89
2022-11-02T07:54:24.854Z,71.83
2022-11-02T07:56:56.562Z,71.75
2022-11-02T07:59:28.351Z,71.60
2022-11-02T08:02:00.048Z,71.76
2022-11-02T08:04:31.795Z,71.85
2022-11-02T08:07:03.461Z,71.72
2022-11-02T08:09:35.224Z,71.55
2022-11-02T08:12:14.678Z,71.71
2022-11-02T08:14:46.474Z,71.55
2022-11-02T08:17:19.143Z,71.63
2022-11-02T08:19:50.800Z,71.76
2022-11-02T08:22:22.670Z,71.79
2022-11-02T08:24:54.276Z,71.73
2022-11-02T08:27:26.189Z,71.79
2022-11-02T08:29:57.761Z,71.54
2022-11-02T08:32:29.654Z,71.36
2022-11-02T08:35:01.249Z,71.42
2022-11-02T08:37:32.961Z,71.29
2022-11-02T08:40:06.132Z,70.53
2022-11-02T08:42:39.087Z,70.07
2022-11-02T08:45:11.911Z,69.80
2022-11-02T08:47:44.469Z,69.65
2022-11-02T08:50:16.494Z,69.64
2022-11-02T08:52:48.459Z,69.66
2022-11-02T08:55:20.303Z,69.59
2022-11-02T08:57:54.730Z,69.09
2022-11-02T09:00:28.566Z,69.35
2022-11-02T09:03:05.741Z,69.42
2022-11-02T09:05:39.970Z,69.50
2022-11-02T09:08:16.758Z,69.22
2022-11-02T09:10:50.923Z,68.28
2022-11-02T09:13:25.782Z,68.33
2022-11-02T09:15:58.879Z,66.87
2022-11-02T09:18:31.707Z,66.02
2022-11-02T09:21:06.260Z,65.34
2022-11-02T09:23:37.867Z,64.81
2022-11-02T09:26:09.581Z,64.52
2022-11-02T09:28:41.414Z,64.55
2022-11-02T09:31:14.005Z,64.44
2022-11-02T09:33:46.398Z,64.18
2022-11-02T09:36:18.061Z,64.39
2022-11-02T09:38:50.585Z,64.13
2022-11-02T09:41:30.636Z,64.40
2022-11-02T09:44:08.564Z,64.14
2022-11-02T09:46:42.886Z,63.75
2022-11-02T09:49:19.917Z,63.71
2022-11-02T09:51:53.624Z,64.16
2022-11-02T09:54:26.613Z,64.00
2022-11-02T09:57:04.647Z,63.72
2022-11-02T09:59:36.406Z,63.94
2022-11-02T10:02:23.738Z,63.94
2022-11-02T10:05:10.312Z,63.88
2022-11-02T10:08:09.507Z,63.47
2022-11-02T10:10:53.421Z,61.83
2022-11-02T10:13:39.666Z,60.62
2022-11-02T10:16:16.583Z,60.53
2022-11-02T10:18:50.485Z,60.78
2022-11-02T10:21:24.826Z,61.04
2022-11-02T10:23:58.024Z,61.18
2022-11-02T10:26:34.980Z,60.96
2022-11-02T10:29:18.094Z,60.77
2022-11-02T10:31:49.957Z,60.28
2022-11-02T10:34:27.797Z,59.77
2022-11-02T10:37:17.126Z,58.75
2022-11-02T10:39:59.687Z,57.98
2022-11-02T10:42:44.071Z,57.21
2022-11-02T10:45:40.365Z,56.30
2022-11-02T10:48:22.416Z,55.71
2022-11-02T10:51:03.311Z,55.03
2022-11-02T10:53:42.041Z,54.11
2022-11-02T10:56:18.321Z,53.83
2022-11-02T10:58:57.307Z,53.88
2022-11-02T11:01:29.932Z,53.44
2022-11-02T11:04:03.356Z,53.36
2022-11-02T11:06:40.630Z,52.89
2022-11-02T11:09:20.754Z,52.19
2022-11-02T11:12:00.685Z,51.54
2022-11-02T11:20:36.743Z,49.51
2022-11-02T11:23:20.613Z,48.93
2022-11-02T11:26:03.192Z,48.36
2022-11-02T11:28:40.861Z,47.89
2022-11-02T11:31:18.522Z,47.31
2022-11-02T11:33:54.105Z,47.01
2022-11-02T11:36:33.002Z,46.88
2022-11-02T11:39:08.339Z,46.73
2022-11-02T11:41:43.058Z,46.61
2022-11-02T11:44:17.209Z,46.58
2022-11-02T11:46:52.507Z,46.35
2022-11-02T11:49:48.056Z,45.93
2022-11-02T11:52:31.251Z,45.27
2022-11-02T11:55:03.257Z,44.64
2022-11-02T12:00:29.937Z,43.64
2022-11-02T12:03:11.701Z,43.00
2022-11-02T12:05:58.396Z,42.87
2022-11-02T12:08:43.827Z,42.45
2022-11-02T12:11:30.023Z,41.96
2022-11-02T12:14:22.216Z,41.66
2022-11-02T12:17:29.221Z,41.20
2022-11-02T12:20:26.420Z,41.00
2022-11-02T12:23:09.150Z,40.79
2022-11-02T12:25:53.419Z,40.76
2022-11-02T12:28:39.736Z,40.38
2022-11-02T12:31:25.476Z,40.27
2022-11-02T12:34:22.794Z,39.62
2022-11-02T12:37:33.097Z,39.40
2022-11-02T12:40:28.496Z,39.11
2022-11-02T12:43:12.826Z,38.95
2022-11-02T12:45:53.399Z,38.66
2022-11-02T12:48:35.529Z,38.49
2022-11-02T12:51:13.488Z,38.44
2022-11-02T12:53:51.453Z,38.24
2022-11-02T12:56:27.723Z,38.24
2022-11-02T12:58:59.837Z,38.14
2022-11-02T13:01:37.453Z,37.89
2022-11-02T13:04:19.748Z,38.26
2022-11-02T13:07:07.966Z,38.38
2022-11-02T13:09:42.293Z,38.46
2022-11-02T13:12:17.995Z,38.47
2022-11-02T13:14:52.878Z,38.76
2022-11-02T13:17:28.637Z,38.85
2022-11-02T13:20:04.397Z,39.02
2022-11-02T13:22:41.328Z,39.10
2022-11-02T13:25:21.020Z,39.26
2022-11-02T13:28:01.279Z,39.29
2022-11-02T13:30:37.605Z,39.67
2022-11-02T13:33:19.740Z,39.80
2022-11-02T13:35:52.919Z,40.04
2022-11-02T13:38:33.328Z,40.32
2022-11-02T13:41:21.107Z,40.43
2022-11-02T13:44:24.986Z,40.77
2022-11-02T13:47:27.331Z,40.89
2022-11-02T13:50:02.110Z,41.28
2022-11-02T13:52:40.654Z,41.44
2022-11-02T13:55:20.537Z,41.67
2022-11-02T13:57:57.712Z,41.86
2022-11-02T14:00:39.718Z,42.05
2022-11-02T14:03:18.881Z,42.31
2022-11-02T14:05:54.752Z,42.45
2022-11-02T14:08:37.273Z,42.73
2022-11-02T14:11:48.257Z,43.07
2022-11-02T14:14:25.450Z,43.16
2022-11-02T14:17:17.159Z,43.38
2022-11-02T14:19:55.893Z,43.65
2022-11-02T14:22:31.229Z,43.94
2022-11-02T14:25:19.033Z,44.20
2022-11-02T14:27:50.752Z,44.37
2022-11-02T14:30:48.888Z,44.43
2022-11-02T14:33:40.084Z,44.68
2022-11-02T14:36:25.890Z,44.97
2022-11-02T14:39:12.957Z,45.25
2022-11-02T14:42:06.827Z,45.42
2022-11-02T14:45:08.741Z,45.52
2022-11-02T14:47:41.386Z,45.84
2022-11-02T14:50:19.673Z,46.01
2022-11-02T14:53:01.684Z,46.29
2022-11-02T14:55:35.356Z,46.51
2022-11-02T14:58:15.221Z,46.60
2022-11-02T15:01:00.686Z,46.96
2022-11-02T15:03:38.937Z,47.31
2022-11-02T15:06:21.006Z,47.34
2022-11-02T15:08:56.420Z,47.66
2022-11-02T15:11:49.144Z,47.82
2022-11-02T15:14:57.536Z,48.07
2022-11-02T15:18:18.284Z,48.34
2022-11-02T15:21:25.966Z,49.06
2022-11-02T15:24:25.955Z,49.26
2022-11-02T15:27:00.322Z,49.50
2022-11-02T15:29:42.259Z,49.56
2022-11-02T15:32:22.658Z,49.79
2022-11-02T15:34:57.875Z,49.96
2022-11-02T15:37:37.398Z,50.05
2022-11-02T15:40:28.840Z,50.38
2022-11-02T15:43:33.891Z,50.64
2022-11-02T15:46:11.973Z,50.97
2022-11-02T15:48:50.716Z,51.11
2022-11-02T15:51:31.967Z,51.33
2022-11-02T15:54:19.882Z,51.44
2022-11-02T15:57:01.856Z,51.61
2022-11-02T16:00:01.172Z,51.74
2022-11-02T16:02:45.217Z,51.89
2022-11-02T16:05:23.839Z,51.90
2022-11-02T16:08:10.878Z,52.13
2022-11-02T16:10:43.792Z,52.42
2022-11-02T16:13:20.365Z,52.52
2022-11-02T16:16:16.796Z,52.66
2022-11-02T16:18:52.171Z,52.84
2022-11-02T16:21:24.104Z,52.82
2022-11-02T16:23:59.434Z,53.04
2022-11-02T16:26:34.004Z,53.12
2022-11-02T16:29:09.262Z,53.32
2022-11-02T16:31:41.867Z,53.44
2022-11-02T16:34:21.600Z,53.44
2022-11-02T16:36:53.774Z,53.70
2022-11-02T16:39:31.933Z,53.76
2022-11-02T16:42:24.740Z,54.01
2022-11-02T16:44:59.105Z,54.12
2022-11-02T16:47:54.335Z,54.16
2022-11-02T16:50:27.862Z,54.51
2022-11-02T16:53:02.322Z,54.43
2022-11-02T16:55:41.637Z,54.58
2022-11-02T16:58:21.223Z,54.75
2022-11-02T17:00:59.490Z,54.83
2022-11-02T17:03:34.550Z,54.80
2022-11-02T17:06:08.529Z,54.86
2022-11-02T17:08:42.515Z,54.88
2022-11-02T17:11:19.613Z,55.09
2022-11-02T17:13:56.499Z,55.10
2022-11-02T17:16:38.618Z,55.10
2022-11-02T17:19:47.749Z,55.19
2022-11-02T17:22:28.506Z,55.35
2022-11-02T17:25:14.042Z,55.41
2022-11-02T17:27:45.808Z,55.55
2022-11-02T17:30:46.513Z,55.64
2022-11-02T17:33:29.911Z,55.77
2022-11-02T17:36:09.133Z,55.90
2022-11-02T17:38:41.240Z,55.96
2022-11-02T17:41:35.158Z,55.91
2022-11-02T17:44:14.931Z,56.21
2022-11-02T17:46:46.676Z,56.13
2022-11-02T17:49:18.522Z,56.27
2022-11-02T17:51:51.625Z,56.29
2022-11-02T17:54:23.492Z,56.45
2022-11-02T17:56:55.178Z,56.54
2022-11-02T17:59:27.040Z,56.69
2022-11-02T18:01:58.899Z,56.86
2022-11-02T18:04:31.844Z,57.05
2022-11-02T18:07:03.759Z,57.10
2022-11-02T18:09:35.745Z,57.10
2022-11-02T18:12:08.077Z,57.02
2022-11-02T18:14:40.668Z,57.05
2022-11-02T18:17:12.345Z,57.05
2022-11-02T18:19:44.075Z,57.03
2022-11-02T18:22:16.153Z,57.18
2022-11-02T18:24:48.093Z,57.24
2022-11-02T18:27:21.615Z,57.42
2022-11-02T18:29:55.452Z,57.42
2022-11-02T18:32:27.247Z,57.47
2022-11-02T18:34:58.851Z,57.61
2022-11-02T18:37:30.627Z,57.78
2022-11-02T18:40:02.259Z,57.83
2022-11-02T18:42:36.027Z,57.90
2022-11-02T18:45:07.781Z,57.89
2022-11-02T18:47:39.556Z,58.24
2022-11-02T18:50:14.241Z,58.11
2022-11-02T18:52:49.864Z,58.18
2022-11-02T18:55:21.678Z,58.20
2022-11-02T18:57:53.425Z,58.32
2022-11-02T19:00:25.311Z,58.48
2022-11-02T19:02:57.040Z,58.50
2022-11-02T19:05:46.705Z,58.59
2022-11-02T19:08:36.424Z,58.69
2022-11-02T19:11:09.838Z,58.75
2022-11-02T19:13:41.435Z,58.84
2022-11-02T19:16:13.270Z,58.83
2022-11-02T19:18:44.962Z,58.97
2022-11-02T19:21:19.050Z,58.92
2022-11-02T19:23:50.838Z,59.00
2022-11-02T19:26:22.789Z,59.04
2022-11-02T19:28:54.574Z,59.02
2022-11-02T19:31:26.559Z,59.18
2022-11-02T19:34:00.308Z,59.28
2022-11-02T19:36:30.531Z,59.23
2022-11-02T19:39:07.138Z,59.47
2022-11-02T19:41:40.206Z,59.41
2022-11-02T19:44:11.849Z,59.45
2022-11-02T19:49:20.235Z,59.77
2022-11-02T19:51:52.006Z,59.76
2022-11-02T19:54:23.708Z,59.91
2022-11-02T19:56:55.536Z,59.90
2022-11-02T19:59:27.412Z,59.93
2022-11-02T20:01:59.254Z,59.99
2022-11-02T20:04:31.389Z,59.90
2022-11-02T20:09:35.690Z,59.89
2022-11-02T20:12:08.758Z,59.86
2022-11-02T20:14:41.073Z,60.01
2022-11-02T20:20:05.162Z,59.99
2022-11-02T20:22:38.858Z,59.90
2022-11-02T20:25:10.059Z,59.89
2022-11-02T20:27:43.733Z,60.05
2022-11-02T20:30:14.285Z,60.33
2022-11-02T20:32:45.943Z,60.40
2022-11-02T20:35:23.180Z,60.35
2022-11-02T20:37:56.410Z,60.34
2022-11-02T20:40:28.892Z,60.46
2022-11-02T20:43:00.601Z,60.53
2022-11-02T20:45:32.489Z,60.57
2022-11-02T20:48:05.812Z,60.56
2022-11-02T20:50:38.132Z,60.68
2022-11-02T20:53:09.819Z,60.79
2022-11-02T20:55:42.696Z,60.88
2022-11-02T20:58:14.324Z,60.88
2022-11-02T21:00:46.498Z,60.87
2022-11-02T21:03:18.659Z,60.92
2022-11-02T21:05:51.523Z,60.87
2022-11-02T21:08:23.486Z,60.90
2022-11-02T21:11:03.815Z,60.94
2022-11-02T21:13:53.597Z,61.05
2022-11-02T21:16:25.619Z,61.13
2022-11-02T21:18:58.628Z,61.09
2022-11-02T21:21:30.599Z,61.08
2022-11-02T21:24:02.233Z,61.17
2022-11-02T21:26:33.832Z,61.24
2022-11-02T21:29:05.466Z,61.30
2022-11-02T21:31:37.350Z,61.39
2022-11-02T21:34:09.111Z,61.36
2022-11-02T21:36:40.761Z,61.46
2022-11-02T21:39:13.497Z,61.45
2022-11-02T21:41:45.353Z,61.52
2022-11-02T21:44:16.972Z,61.57
2022-11-02T21:46:51.499Z,61.57
2022-11-02T21:49:23.739Z,61.67
2022-11-02T21:51:55.323Z,61.63
2022-11-02T21:54:27.004Z,61.68
2022-11-02T21:56:59.189Z,61.60
2022-11-02T21:59:30.870Z,61.68
2022-11-02T22:02:02.710Z,61.60
2022-11-02T22:04:35.711Z,61.63
2022-11-02T22:07:07.536Z,61.64
2022-11-02T22:09:39.220Z,61.72
2022-11-02T22:12:28.814Z,61.81
2022-11-02T22:15:00.503Z,61.85
2022-11-02T22:20:24.054Z,62.09
2022-11-02T22:22:55.661Z,62.10
2022-11-02T22:25:27.504Z,62.03
2022-11-02T22:27:59.186Z,62.20
2022-11-02T22:30:31.025Z,62.22
2022-11-02T22:33:02.964Z,62.34
2022-11-02T22:35:37.500Z,62.45
2022-11-02T22:38:26.624Z,62.52
2022-11-02T22:41:03.402Z,62.53
2022-11-02T22:43:35.083Z,62.56
2022-11-02T22:46:08.760Z,62.50
2022-11-02T22:48:39.227Z,62.49
2022-11-02T22:51:11.650Z,62.56
2022-11-02T22:53:44.512Z,62.49
2022-11-02T22:56:21.048Z,62.60
2022-11-02T22:58:54.085Z,62.61
2022-11-02T23:01:27.988Z,62.57
2022-11-02T23:04:02.095Z,62.74
2022-11-02T23:06:33.984Z,62.88
2022-11-02T23:09:05.984Z,62.85
2022-11-02T23:11:39.041Z,62.98
2022-11-02T23:14:12.934Z,62.95
2022-11-02T23:16:46.893Z,62.95
2022-11-02T23:19:30.894Z,62.91
2022-11-02T23:22:24.114Z,63.19
2022-11-02T23:25:14.250Z,63.17
2022-11-02T23:28:05.610Z,63.25
2022-11-02T23:30:56.674Z,63.29
2022-11-02T23:33:34.349Z,63.11
2022-11-02T23:36:12.824Z,63.21
2022-11-02T23:39:05.214Z,63.15
2022-11-02T23:41:38.816Z,63.17
2022-11-02T23:44:15.205Z,63.23
2022-11-02T23:46:49.568Z,63.19
2022-11-02T23:49:21.409Z,63.30
2022-11-02T23:52:10.842Z,63.20
2022-11-02T23:54:59.976Z,63.31
2022-11-02T23:57:32.062Z,63.33
